Haiku, Hawaii
Current Conditions -  °F | °C
As of 9:54 AM on Friday 31 Oct 2014 (Local Time) from PHOG Reporting Station
Scattered Clouds Scattered Clouds  
Wind Chill: 84°   Ceiling: Unl
Heat Index: 87°   Visibility: 10mi
Dew Point: 68°   Wind: 22mph
Humidity: 58%   Direction: 50°NE
Pressure: 30.04"   Gusts: 29mph
Location:  20.91°N, 156.32°W
Report Text: PHOG 311954Z 05019G25KT 10SM FEW020 SCT035 29/20 A3004 RMK AO2 PK WND 05026/1927 SLP178 T02890200
Loading
Personal Weather Stations






























Interactive Weather Map
Tropical Storm Tracking
New forecast layout! Learn more

10-Day Weather Forecast

Advertisements
Track Severe Weather on mobile